Fire Weather Observation
Issued by NWS Grand Junction, CO

Home | Current Version | Previous Version | Graphics & Text | Print | Product List | Glossary On
Versions: 1 2 3 4 5 6 7 8 9 10 11 12 13 14 15 16 17 18 19 20 21 22 23 24 25 26 27 28 29 30 31 32 33 34 35 36 37 38 39 40 41 42 43 44 45 46 47 48 49 50
000
SHUS65 KGJT 262027
FWOGJT

DAILY FIRE WEATHER OBSERVATION
NATIONAL WEATHER SERVICE GRAND JUNCTION CO
212 PM MDT TUE AUG 26 2014

STATE OF THE WEATHER (W)               3
DRY BULB TEMPERATURE                   68   DEGREES FAHRENHEIT
RELATIVE HUMIDITY (RH)                 68   PERCENT
LIGHTNING ACTIVITY LEVEL
  (LAL - MIDNIGHT TO 2 PM)             5
WIND DIRECTION                         180  DEGREES (C IF CALM)
WIND SPEED                             10   MPH
MAX TEMP (2 PM - 2 PM)                 84   DEGREES FAHRENHEIT
MIN TEMP (2 PM - 2 PM)                 60   DEGREES FAHRENHEIT
MAX RH (2 PM - 2 PM)                   72   PERCENT
MIN RH (2 PM - 2 PM)                   29   PERCENT
PCPN DURATION                          0.8  HOURS
PCPN AMT (2 PM - 2 PM)                 0.06 INCHES
LAL (2 PM - 2 PM)                      5

$$

METAR KGJT 261953Z 18009KT 10SM SCT080 BKN120 20/14 A3018 RMK
      AO2 LTG DSNT SE RAB31E40 SLP166 VCSH P0000 T02000139



USA.gov is the U.S. government's official web portal to all federal, state and local government web resources and services.